Time;durP1;ratioP1;P1;durP2;ratioP2;P2;SDS_P1;SDS_P2;PMS_P1;PMS_P2;Temp;Humidity;BMP_temperature;BMP_pressure;BME280_temperature;BME280_humidity;BME280_pressure;Samples;Min_cycle;Max_cycle;Signal;HPM_P1;HPM_P2
2022/07/25 00:00:25;;;;;;;6.07;5.68;;;;;;;;;;5087656;28;20071;-83
2022/07/25 00:02:52;;;;;;;6.68;6.07;;;;;;;;;;5087328;28;20051;-84
2022/07/25 00:05:20;;;;;;;7.68;6.97;;;;;;;;;;5088848;28;20049;-86
2022/07/25 00:07:48;;;;;;;7.05;6.45;;;;;;;;;;5089455;28;20048;-85
2022/07/25 00:10:15;;;;;;;7.10;6.45;;;;;;;;;;5086432;28;20048;-83
2022/07/25 00:12:43;;;;;;;7.47;6.70;;;;;;;;;;5086183;28;20041;-85
2022/07/25 00:15:11;;;;;;;6.57;5.97;;;;;;;;;;5085093;28;20074;-85
2022/07/25 00:17:38;;;;;;;10.90;6.97;;;;;;;;;;5083982;28;20045;-83
2022/07/25 00:20:05;;;;;;;7.25;6.55;;;;;;;;;;5084058;28;20060;-84
2022/07/25 00:22:33;;;;;;;7.43;6.63;;;;;;;;;;5084504;28;20049;-85
2022/07/25 00:25:00;;;;;;;7.07;6.47;;;;;;;;;;5084587;28;20078;-84
2022/07/25 00:27:27;;;;;;;8.52;6.93;;;;;;;;;;5085143;28;20558;-85
2022/07/25 00:29:55;;;;;;;7.85;7.15;;;;;;;;;;5084128;28;20112;-84
2022/07/25 00:32:22;;;;;;;7.65;6.93;;;;;;;;;;5083650;28;20049;-86
2022/07/25 00:34:50;;;;;;;7.70;6.95;;;;;;;;;;5082849;28;20048;-85
2022/07/25 00:37:17;;;;;;;7.90;7.10;;;;;;;;;;5083937;28;20098;-85
2022/07/25 00:39:44;;;;;;;9.07;7.60;;;;;;;;;;5083221;28;20052;-85
2022/07/25 00:42:11;;;;;;;7.53;6.93;;;;;;;;;;5083839;28;20048;-85
2022/07/25 00:44:38;;;;;;;9.73;7.68;;;;;;;;;;5086221;28;20053;-86
2022/07/25 00:47:06;;;;;;;7.20;6.60;;;;;;;;;;5083517;28;20118;-85
2022/07/25 00:49:33;;;;;;;7.82;7.13;;;;;;;;;;5085991;28;20051;-86
2022/07/25 00:52:02;;;;;;;7.60;7.00;;;;;;;;;;5085888;28;20052;-85
2022/07/25 00:54:30;;;;;;;7.28;6.57;;;;;;;;;;5084900;28;20049;-85
2022/07/25 00:56:57;;;;;;;7.72;7.13;;;;;;;;;;5083686;28;20040;-85
2022/07/25 00:59:24;;;;;;;7.85;6.85;;;;;;;;;;5083494;28;20045;-85
2022/07/25 01:01:52;;;;;;;7.60;6.95;;;;;;;;;;5082009;28;20052;-87
2022/07/25 01:04:20;;;;;;;6.82;6.28;;;;;;;;;;5081891;28;20112;-85
2022/07/25 01:06:47;;;;;;;7.53;6.82;;;;;;;;;;5082031;28;20049;-86
2022/07/25 01:09:15;;;;;;;6.85;6.35;;;;;;;;;;5083126;28;20049;-86
2022/07/25 01:11:43;;;;;;;7.93;7.22;;;;;;;;;;5082961;28;20052;-86
2022/07/25 01:14:10;;;;;;;7.30;6.65;;;;;;;;;;5082616;28;20044;-87
2022/07/25 01:16:39;;;;;;;7.95;7.25;;;;;;;;;;5081609;28;20047;-85
2022/07/25 01:19:07;;;;;;;10.00;7.40;;;;;;;;;;5081784;28;20052;-85
2022/07/25 01:21:41;;;;;;;8.55;7.25;;;;;;;;;;5086425;28;20055;-85
2022/07/25 01:24:09;;;;;;;8.35;7.28;;;;;;;;;;5088921;28;20053;-86
2022/07/25 01:26:36;;;;;;;9.52;7.38;;;;;;;;;;5089985;28;20102;-87
2022/07/25 01:29:04;;;;;;;8.23;7.40;;;;;;;;;;5093617;28;20071;-85
2022/07/25 01:31:31;;;;;;;8.82;7.68;;;;;;;;;;5084433;28;20044;-87
2022/07/25 01:33:59;;;;;;;7.85;7.25;;;;;;;;;;5083698;28;20053;-87
2022/07/25 01:36:26;;;;;;;10.57;7.63;;;;;;;;;;5082985;28;20048;-87
2022/07/25 01:38:53;;;;;;;8.55;7.75;;;;;;;;;;5083293;28;20064;-87
2022/07/25 01:41:20;;;;;;;8.02;7.32;;;;;;;;;;5087121;28;20064;-87
2022/07/25 01:43:48;;;;;;;8.07;7.38;;;;;;;;;;5087494;28;20127;-85
2022/07/25 01:46:16;;;;;;;7.78;7.18;;;;;;;;;;5091016;28;20068;-85
2022/07/25 01:48:43;;;;;;;8.05;6.95;;;;;;;;;;5091377;28;20057;-85
2022/07/25 01:51:10;;;;;;;8.48;7.68;;;;;;;;;;5090967;28;20056;-86
2022/07/25 01:53:38;;;;;;;7.75;7.05;;;;;;;;;;5091180;28;20127;-85
2022/07/25 01:56:09;;;;;;;8.77;8.00;;;;;;;;;;5091296;28;20127;-84
2022/07/25 01:58:38;;;;;;;8.38;7.57;;;;;;;;;;5090808;28;20417;-86
2022/07/25 02:01:05;;;;;;;8.48;7.70;;;;;;;;;;5091997;28;20120;-86
2022/07/25 02:03:33;;;;;;;8.35;7.65;;;;;;;;;;5092185;28;20053;-85
2022/07/25 02:06:02;;;;;;;9.50;7.78;;;;;;;;;;5092669;28;20104;-85
2022/07/25 02:08:29;;;;;;;9.38;7.35;;;;;;;;;;5089732;28;20050;-87
2022/07/25 02:10:57;;;;;;;10.50;7.88;;;;;;;;;;5090207;28;20090;-85
2022/07/25 02:13:25;;;;;;;8.52;7.70;;;;;;;;;;5091747;28;20075;-84
2022/07/25 02:15:52;;;;;;;8.75;8.05;;;;;;;;;;5092228;28;20045;-84
2022/07/25 02:18:19;;;;;;;8.55;7.65;;;;;;;;;;5091159;28;20055;-84
2022/07/25 02:20:47;;;;;;;8.35;7.63;;;;;;;;;;5093182;28;20045;-84
2022/07/25 02:23:14;;;;;;;11.60;8.48;;;;;;;;;;5092806;28;20124;-84
2022/07/25 02:25:42;;;;;;;9.80;7.95;;;;;;;;;;5094058;28;20074;-85
2022/07/25 02:28:09;;;;;;;8.55;7.80;;;;;;;;;;5077614;28;20045;-85
2022/07/25 02:30:36;;;;;;;8.25;7.55;;;;;;;;;;5092847;28;20044;-85
2022/07/25 02:33:04;;;;;;;9.05;8.10;;;;;;;;;;5093129;28;20049;-86
2022/07/25 02:35:31;;;;;;;9.80;8.27;;;;;;;;;;5093093;28;20040;-86
2022/07/25 02:37:58;;;;;;;9.43;8.50;;;;;;;;;;5091671;28;20048;-85
2022/07/25 02:40:27;;;;;;;9.13;8.15;;;;;;;;;;5092867;28;20135;-85
2022/07/25 02:42:54;;;;;;;8.68;7.85;;;;;;;;;;5090683;28;20052;-87
2022/07/25 02:45:21;;;;;;;8.35;7.65;;;;;;;;;;5089747;28;20101;-85
2022/07/25 02:47:48;;;;;;;8.88;8.10;;;;;;;;;;5087275;28;20063;-85
2022/07/25 02:50:16;;;;;;;9.10;8.25;;;;;;;;;;5088135;28;20053;-84
2022/07/25 02:52:43;;;;;;;9.32;8.45;;;;;;;;;;5086840;28;20052;-84
2022/07/25 02:55:10;;;;;;;9.98;8.27;;;;;;;;;;5088880;28;20060;-86
2022/07/25 02:57:38;;;;;;;10.75;9.27;;;;;;;;;;5090104;28;20055;-84
2022/07/25 03:00:06;;;;;;;11.15;10.05;;;;;;;;;;5089874;28;20052;-84
2022/07/25 03:02:33;;;;;;;10.63;9.52;;;;;;;;;;5089475;28;20052;-85
2022/07/25 03:05:00;;;;;;;9.25;8.30;;;;;;;;;;5091744;28;20078;-83
2022/07/25 03:07:27;;;;;;;8.70;7.80;;;;;;;;;;5092139;28;20048;-85
2022/07/25 03:09:54;;;;;;;9.02;8.30;;;;;;;;;;5089186;28;20045;-84
2022/07/25 03:12:22;;;;;;;10.00;9.07;;;;;;;;;;5090335;28;20067;-85
2022/07/25 03:14:49;;;;;;;9.15;8.25;;;;;;;;;;5088353;28;20097;-84
2022/07/25 03:17:16;;;;;;;11.25;8.63;;;;;;;;;;5086222;28;20056;-84
2022/07/25 03:19:43;;;;;;;9.20;8.30;;;;;;;;;;5087812;28;20045;-84
2022/07/25 03:22:10;;;;;;;9.50;8.20;;;;;;;;;;5085854;28;20048;-85
2022/07/25 03:24:37;;;;;;;9.50;8.60;;;;;;;;;;5086341;28;20049;-86
2022/07/25 03:27:05;;;;;;;10.10;8.80;;;;;;;;;;5086504;28;20048;-85
2022/07/25 03:29:32;;;;;;;11.02;9.57;;;;;;;;;;5086337;28;20063;-85
2022/07/25 03:31:59;;;;;;;10.02;9.10;;;;;;;;;;5087301;28;20049;-84
2022/07/25 03:34:26;;;;;;;9.80;8.73;;;;;;;;;;5086669;28;20071;-85
2022/07/25 03:36:54;;;;;;;9.48;8.55;;;;;;;;;;5089143;28;20102;-86
2022/07/25 03:39:21;;;;;;;10.18;9.00;;;;;;;;;;5092456;28;20040;-85
2022/07/25 03:41:48;;;;;;;14.02;8.95;;;;;;;;;;5090668;28;20063;-84
2022/07/25 03:44:36;;;;;;;8.70;7.97;;;;;;;;;;5091341;28;20044;-88
2022/07/25 03:47:04;;;;;;;9.48;8.57;;;;;;;;;;5092573;28;20064;-87
2022/07/25 03:49:32;;;;;;;9.75;8.85;;;;;;;;;;5092344;28;20131;-85
2022/07/25 03:51:59;;;;;;;11.05;8.55;;;;;;;;;;5091128;28;20055;-84
2022/07/25 03:54:27;;;;;;;10.43;9.38;;;;;;;;;;5090436;28;20123;-85
2022/07/25 03:56:54;;;;;;;9.55;8.60;;;;;;;;;;5088800;28;20044;-85
2022/07/25 03:59:22;;;;;;;12.27;9.27;;;;;;;;;;5094148;28;20050;-84
2022/07/25 04:01:50;;;;;;;12.98;8.68;;;;;;;;;;5093994;28;20127;-84
2022/07/25 04:04:18;;;;;;;13.93;9.20;;;;;;;;;;5094131;28;20042;-85
2022/07/25 04:06:46;;;;;;;18.08;9.52;;;;;;;;;;5092649;28;20055;-84
2022/07/25 04:09:14;;;;;;;15.75;8.82;;;;;;;;;;5093178;28;20040;-86
2022/07/25 04:11:41;;;;;;;13.05;8.88;;;;;;;;;;5091111;28;20055;-86
2022/07/25 04:14:10;;;;;;;17.10;8.98;;;;;;;;;;5085183;28;20059;-85
2022/07/25 04:16:38;;;;;;;21.13;9.77;;;;;;;;;;5085387;28;20067;-86
2022/07/25 04:19:06;;;;;;;9.52;8.27;;;;;;;;;;5085583;28;20406;-86
2022/07/25 04:21:34;;;;;;;13.75;8.88;;;;;;;;;;5087333;28;20131;-88
2022/07/25 04:24:02;;;;;;;9.85;8.73;;;;;;;;;;5067617;28;20048;-87
2022/07/25 04:26:30;;;;;;;14.38;8.55;;;;;;;;;;5084192;28;20056;-85
2022/07/25 04:28:57;;;;;;;11.48;8.82;;;;;;;;;;5084157;28;20049;-86
2022/07/25 04:31:25;;;;;;;12.38;9.27;;;;;;;;;;5086249;28;20102;-86
2022/07/25 04:33:52;;;;;;;9.90;8.90;;;;;;;;;;5084381;28;20049;-86
2022/07/25 04:36:20;;;;;;;8.32;7.68;;;;;;;;;;5081126;28;20071;-87
2022/07/25 04:38:47;;;;;;;10.13;8.48;;;;;;;;;;5083354;28;20075;-86
2022/07/25 04:41:14;;;;;;;10.50;8.80;;;;;;;;;;5083920;28;20142;-84
2022/07/25 04:43:42;;;;;;;11.85;9.70;;;;;;;;;;5084807;28;20048;-84
2022/07/25 04:46:22;;;;;;;17.50;9.40;;;;;;;;;;5081224;28;20052;-85
2022/07/25 04:48:50;;;;;;;12.60;8.77;;;;;;;;;;5082263;28;20055;-85
2022/07/25 04:51:18;;;;;;;11.00;8.60;;;;;;;;;;5081700;28;20064;-84
2022/07/25 04:53:46;;;;;;;11.57;8.85;;;;;;;;;;5084617;28;20130;-87
2022/07/25 04:56:13;;;;;;;11.60;8.45;;;;;;;;;;5082807;28;20053;-86
2022/07/25 04:58:40;;;;;;;13.35;9.23;;;;;;;;;;5080956;28;20040;-86
2022/07/25 05:01:08;;;;;;;9.00;8.10;;;;;;;;;;5081465;28;20142;-86
2022/07/25 05:03:36;;;;;;;11.95;9.13;;;;;;;;;;5084573;28;20110;-87
2022/07/25 05:06:04;;;;;;;9.70;8.80;;;;;;;;;;5087543;28;20059;-86
2022/07/25 05:08:31;;;;;;;9.48;8.57;;;;;;;;;;5083373;28;20049;-86
2022/07/25 05:10:59;;;;;;;9.90;9.00;;;;;;;;;;5085554;28;20051;-86
2022/07/25 05:13:26;;;;;;;9.60;8.80;;;;;;;;;;5087277;28;20048;-86
2022/07/25 05:15:54;;;;;;;10.30;8.48;;;;;;;;;;5088543;28;20490;-87
2022/07/25 05:18:21;;;;;;;9.10;8.25;;;;;;;;;;5091401;28;20044;-84
2022/07/25 05:21:01;;;;;;;9.38;8.57;;;;;;;;;;5097812;28;20104;-85
2022/07/25 05:23:29;;;;;;;8.90;8.10;;;;;;;;;;5097554;28;20064;-84
2022/07/25 05:25:57;;;;;;;8.68;7.90;;;;;;;;;;5095809;28;20048;-85
2022/07/25 05:28:25;;;;;;;8.57;7.80;;;;;;;;;;5099002;28;20058;-83
2022/07/25 05:30:53;;;;;;;9.15;7.47;;;;;;;;;;5097119;28;20033;-86
2022/07/25 05:33:28;;;;;;;7.93;6.90;;;;;;;;;;5092624;28;20341;-86
2022/07/25 05:35:55;;;;;;;9.75;7.00;;;;;;;;;;5094312;28;20061;-87
2022/07/25 05:38:23;;;;;;;7.82;6.95;;;;;;;;;;5092374;28;20036;-84
2022/07/25 05:40:51;;;;;;;7.55;6.85;;;;;;;;;;5093273;28;20053;-83
2022/07/25 05:43:20;;;;;;;9.55;6.95;;;;;;;;;;5094320;28;20048;-85
2022/07/25 05:45:47;;;;;;;7.00;6.50;;;;;;;;;;5095120;28;20082;-85
2022/07/25 05:48:15;;;;;;;6.93;6.32;;;;;;;;;;5094743;28;20086;-86
2022/07/25 05:50:44;;;;;;;9.23;6.28;;;;;;;;;;5093887;28;20048;-84
2022/07/25 05:53:11;;;;;;;10.57;6.55;;;;;;;;;;5092946;28;20052;-85
2022/07/25 05:55:39;;;;;;;10.52;6.72;;;;;;;;;;5093532;28;20045;-84
2022/07/25 05:58:08;;;;;;;7.15;6.45;;;;;;;;;;5093923;28;20051;-84
2022/07/25 06:00:35;;;;;;;6.53;5.93;;;;;;;;;;5076333;28;20053;-85
2022/07/25 06:03:03;;;;;;;6.90;6.20;;;;;;;;;;5091812;28;20060;-85
2022/07/25 06:05:30;;;;;;;7.07;6.13;;;;;;;;;;5092105;28;20068;-83
2022/07/25 06:07:58;;;;;;;6.90;5.95;;;;;;;;;;5091800;28;20060;-85
2022/07/25 06:10:26;;;;;;;7.25;6.35;;;;;;;;;;5078460;28;20044;-83
2022/07/25 06:12:53;;;;;;;7.38;6.68;;;;;;;;;;5095016;28;20058;-84
2022/07/25 06:15:20;;;;;;;8.60;6.47;;;;;;;;;;5094246;28;20056;-84
2022/07/25 06:17:49;;;;;;;7.57;6.28;;;;;;;;;;5093684;28;20051;-85
2022/07/25 06:20:16;;;;;;;6.82;6.20;;;;;;;;;;5096791;28;20048;-83
2022/07/25 06:22:43;;;;;;;7.40;5.95;;;;;;;;;;5094447;28;20071;-83
2022/07/25 06:25:11;;;;;;;6.80;6.10;;;;;;;;;;5097270;28;20052;-86
2022/07/25 06:27:38;;;;;;;7.95;6.13;;;;;;;;;;5093009;28;20079;-81
2022/07/25 06:30:06;;;;;;;7.35;5.72;;;;;;;;;;5093749;28;20074;-84
2022/07/25 06:32:45;;;;;;;6.10;5.55;;;;;;;;;;5093254;28;20048;-81
2022/07/25 06:35:12;;;;;;;6.60;5.47;;;;;;;;;;5094058;28;20075;-84
2022/07/25 06:37:39;;;;;;;6.10;5.53;;;;;;;;;;5093731;28;20138;-84
2022/07/25 06:40:07;;;;;;;5.20;4.80;;;;;;;;;;5095180;28;20075;-85
2022/07/25 06:42:41;;;;;;;4.82;4.50;;;;;;;;;;5096729;28;20060;-83
2022/07/25 06:45:09;;;;;;;5.15;4.75;;;;;;;;;;5094549;28;20043;-84
2022/07/25 06:47:37;;;;;;;5.07;4.43;;;;;;;;;;5095371;28;20058;-84
2022/07/25 06:50:06;;;;;;;4.80;4.32;;;;;;;;;;5098060;28;20112;-86
2022/07/25 06:52:34;;;;;;;4.95;4.47;;;;;;;;;;5094491;28;20032;-84
2022/07/25 06:55:03;;;;;;;4.75;4.35;;;;;;;;;;5096181;28;20048;-88
2022/07/25 06:57:30;;;;;;;6.75;3.75;;;;;;;;;;5092145;28;20066;-83
2022/07/25 06:59:57;;;;;;;4.88;4.35;;;;;;;;;;5091527;28;20056;-87
2022/07/25 07:02:24;;;;;;;4.28;3.95;;;;;;;;;;5088978;28;20044;-83
2022/07/25 07:04:51;;;;;;;5.93;4.00;;;;;;;;;;5087091;28;20075;-83
2022/07/25 07:07:19;;;;;;;7.78;4.05;;;;;;;;;;5088655;28;20052;-84
2022/07/25 07:09:55;;;;;;;5.05;4.63;;;;;;;;;;5088376;28;20044;-84
2022/07/25 07:12:22;;;;;;;4.60;4.20;;;;;;;;;;5085392;28;20047;-86
2022/07/25 07:14:49;;;;;;;7.75;4.30;;;;;;;;;;5084736;28;20044;-84
2022/07/25 07:17:17;;;;;;;4.28;3.90;;;;;;;;;;5086044;28;20064;-86
2022/07/25 07:19:44;;;;;;;4.07;3.78;;;;;;;;;;5090530;28;20049;-87
2022/07/25 07:22:11;;;;;;;5.00;4.50;;;;;;;;;;5088327;28;20048;-84
2022/07/25 07:24:39;;;;;;;4.50;4.20;;;;;;;;;;5084075;28;20052;-83
2022/07/25 07:27:11;;;;;;;5.95;3.95;;;;;;;;;;5084892;28;20059;-85
2022/07/25 07:29:38;;;;;;;4.28;4.05;;;;;;;;;;5090125;28;20113;-85
2022/07/25 07:32:05;;;;;;;3.50;3.20;;;;;;;;;;5088542;28;20094;-85
2022/07/25 07:34:33;;;;;;;6.00;4.13;;;;;;;;;;5087730;28;20048;-85
2022/07/25 07:37:01;;;;;;;6.10;4.10;;;;;;;;;;5085287;28;20048;-84
2022/07/25 07:39:28;;;;;;;4.35;3.95;;;;;;;;;;5088205;28;20040;-83
2022/07/25 07:41:55;;;;;;;5.53;3.40;;;;;;;;;;5086775;28;20078;-85
2022/07/25 07:44:23;;;;;;;7.32;4.07;;;;;;;;;;5086864;28;20052;-84
2022/07/25 07:46:50;;;;;;;5.28;3.80;;;;;;;;;;5086074;28;20052;-85
2022/07/25 07:49:18;;;;;;;4.43;3.80;;;;;;;;;;5082830;28;20063;-83
2022/07/25 07:51:45;;;;;;;4.40;3.90;;;;;;;;;;5082334;28;20091;-81
2022/07/25 07:57:00;;;;;;;5.10;4.40;;;;;;;;;;5083296;28;20056;-83
2022/07/25 07:59:27;;;;;;;4.45;3.80;;;;;;;;;;5083108;28;20097;-84
2022/07/25 08:01:55;;;;;;;5.43;4.10;;;;;;;;;;5081682;28;20048;-83
2022/07/25 08:04:23;;;;;;;4.07;3.78;;;;;;;;;;5079886;28;20078;-85
2022/07/25 08:06:50;;;;;;;4.25;3.72;;;;;;;;;;5083465;28;20055;-86
2022/07/25 08:09:18;;;;;;;3.65;3.35;;;;;;;;;;5085128;28;20103;-83
2022/07/25 08:11:46;;;;;;;4.15;3.85;;;;;;;;;;5078720;28;20128;-82
2022/07/25 08:14:13;;;;;;;4.20;4.00;;;;;;;;;;5084783;28;20048;-83
2022/07/25 08:16:40;;;;;;;3.60;3.33;;;;;;;;;;5086133;28;20044;-86
2022/07/25 08:19:07;;;;;;;5.53;4.05;;;;;;;;;;5081364;28;20044;-84
2022/07/25 08:21:34;;;;;;;3.95;3.60;;;;;;;;;;5073157;28;20053;-86
2022/07/25 08:24:03;;;;;;;4.20;3.40;;;;;;;;;;5072830;28;20048;-87
2022/07/25 08:26:33;;;;;;;5.40;3.85;;;;;;;;;;5072353;28;20052;-87
2022/07/25 08:29:00;;;;;;;7.75;3.67;;;;;;;;;;5074187;28;20044;-85
2022/07/25 08:31:45;;;;;;;5.43;3.35;;;;;;;;;;5072628;28;20506;-87
2022/07/25 08:34:13;;;;;;;4.35;3.95;;;;;;;;;;5073216;28;20106;-85
2022/07/25 08:36:40;;;;;;;4.15;3.38;;;;;;;;;;5072255;28;20049;-87
2022/07/25 08:39:07;;;;;;;3.65;3.20;;;;;;;;;;5071840;28;20083;-86
2022/07/25 08:41:38;;;;;;;4.13;3.72;;;;;;;;;;5072574;28;20101;-88
2022/07/25 08:44:05;;;;;;;4.20;3.90;;;;;;;;;;5077248;28;20057;-85
2022/07/25 08:46:32;;;;;;;6.65;4.10;;;;;;;;;;5072982;28;20052;-85
2022/07/25 08:49:01;;;;;;;4.03;3.72;;;;;;;;;;5071957;28;20059;-87
2022/07/25 08:51:29;;;;;;;5.28;3.40;;;;;;;;;;5072074;28;20048;-86
2022/07/25 08:53:56;;;;;;;4.22;3.40;;;;;;;;;;5073406;28;20072;-88
2022/07/25 08:56:23;;;;;;;3.47;3.28;;;;;;;;;;5071798;28;20547;-86
2022/07/25 08:58:50;;;;;;;5.65;3.60;;;;;;;;;;5071815;28;20498;-86
2022/07/25 09:01:18;;;;;;;4.70;3.22;;;;;;;;;;5073003;28;20048;-86
2022/07/25 09:03:46;;;;;;;7.15;3.70;;;;;;;;;;5071965;28;20048;-87
2022/07/25 09:06:15;;;;;;;7.85;3.50;;;;;;;;;;5072110;28;20438;-86
2022/07/25 09:08:55;;;;;;;3.85;3.47;;;;;;;;;;5072215;28;20066;-88
2022/07/25 09:11:26;;;;;;;4.22;2.83;;;;;;;;;;5072090;28;20052;-87
2022/07/25 09:13:58;;;;;;;3.78;3.53;;;;;;;;;;5072238;28;20526;-87
2022/07/25 09:16:32;;;;;;;12.90;3.58;;;;;;;;;;5072081;28;20053;-87
2022/07/25 09:19:16;;;;;;;3.95;3.55;;;;;;;;;;5073048;28;20045;-86
2022/07/25 09:21:45;;;;;;;4.20;3.63;;;;;;;;;;5071737;28;20048;-85
2022/07/25 09:24:14;;;;;;;7.45;3.17;;;;;;;;;;5071505;28;20572;-87
2022/07/25 09:26:46;;;;;;;4.00;3.40;;;;;;;;;;5071661;28;20053;-86
2022/07/25 09:29:20;;;;;;;4.07;3.25;;;;;;;;;;5072321;28;20106;-87
2022/07/25 09:31:48;;;;;;;8.73;3.92;;;;;;;;;;5073664;28;20052;-86
2022/07/25 09:34:35;;;;;;;4.00;3.30;;;;;;;;;;5071840;28;20048;-86
2022/07/25 09:37:07;;;;;;;14.27;3.92;;;;;;;;;;5071479;28;20490;-86
2022/07/25 09:39:40;;;;;;;8.43;3.38;;;;;;;;;;5073194;28;20106;-84
2022/07/25 09:42:15;;;;;;;8.45;4.22;;;;;;;;;;5071850;28;20087;-87
2022/07/25 09:44:43;;;;;;;4.57;3.20;;;;;;;;;;5073161;28;20072;-86
2022/07/25 09:47:12;;;;;;;5.60;3.67;;;;;;;;;;5071815;28;20129;-85
2022/07/25 09:49:42;;;;;;;4.15;3.72;;;;;;;;;;5072724;28;20418;-87
2022/07/25 09:52:10;;;;;;;8.60;4.20;;;;;;;;;;5075232;28;20051;-86
2022/07/25 09:54:38;;;;;;;3.75;3.47;;;;;;;;;;5075418;28;20076;-88
2022/07/25 09:57:05;;;;;;;6.35;3.53;;;;;;;;;;5075032;28;20067;-86
2022/07/25 09:59:33;;;;;;;3.65;3.38;;;;;;;;;;5075328;28;20045;-85
2022/07/25 10:02:18;;;;;;;8.50;3.33;;;;;;;;;;5074821;28;20049;-87
2022/07/25 10:05:04;;;;;;;3.70;3.35;;;;;;;;;;5075682;28;20170;-84
2022/07/25 10:07:35;;;;;;;3.90;3.53;;;;;;;;;;5075106;28;20470;-87
2022/07/25 10:10:03;;;;;;;3.83;3.63;;;;;;;;;;5075077;28;20101;-88
2022/07/25 10:12:30;;;;;;;3.38;3.10;;;;;;;;;;5076009;28;20094;-88
2022/07/25 10:15:11;;;;;;;6.13;3.05;;;;;;;;;;5074623;28;20045;-87
2022/07/25 10:17:39;;;;;;;4.65;3.00;;;;;;;;;;5074651;28;20040;-85
2022/07/25 10:20:07;;;;;;;5.25;3.20;;;;;;;;;;5077939;28;20470;-85
2022/07/25 10:22:40;;;;;;;3.58;3.28;;;;;;;;;;5076166;28;20052;-86
2022/07/25 10:25:24;;;;;;;3.20;3.00;;;;;;;;;;5075702;28;20086;-86
2022/07/25 10:27:59;;;;;;;3.05;2.85;;;;;;;;;;5074303;28;20098;-86
2022/07/25 10:30:28;;;;;;;7.28;3.60;;;;;;;;;;5074328;28;20048;-87
2022/07/25 10:32:59;;;;;;;2.80;2.70;;;;;;;;;;5074471;28;20041;-84
2022/07/25 10:35:27;;;;;;;3.33;3.13;;;;;;;;;;5074458;28;20079;-87
2022/07/25 10:37:55;;;;;;;5.25;3.10;;;;;;;;;;5074071;28;20049;-85
2022/07/25 10:40:29;;;;;;;4.35;2.97;;;;;;;;;;5074524;28;20051;-84
2022/07/25 10:42:57;;;;;;;5.32;2.97;;;;;;;;;;5074117;28;20048;-87
2022/07/25 10:45:26;;;;;;;3.20;2.95;;;;;;;;;;5073974;28;20088;-85
2022/07/25 10:47:54;;;;;;;3.10;2.95;;;;;;;;;;5073653;28;20053;-87
2022/07/25 10:50:22;;;;;;;5.32;3.22;;;;;;;;;;5074053;28;20056;-86
2022/07/25 10:53:09;;;;;;;3.83;3.47;;;;;;;;;;5075990;28;20144;-87
2022/07/25 10:55:36;;;;;;;3.42;3.15;;;;;;;;;;5074979;28;20067;-87
2022/07/25 10:58:05;;;;;;;5.38;3.10;;;;;;;;;;5073546;28;20044;-86
2022/07/25 11:00:49;;;;;;;5.03;3.65;;;;;;;;;;5074103;28;20045;-86
2022/07/25 11:03:17;;;;;;;3.22;2.97;;;;;;;;;;5073930;28;20498;-85
2022/07/25 11:05:45;;;;;;;7.32;3.42;;;;;;;;;;5073705;28;20048;-87
2022/07/25 11:08:12;;;;;;;3.72;3.20;;;;;;;;;;5073947;28;20048;-84
2022/07/25 11:10:52;;;;;;;3.63;3.33;;;;;;;;;;5073889;28;20079;-86
2022/07/25 11:13:19;;;;;;;5.30;3.38;;;;;;;;;;5075064;28;20048;-87
2022/07/25 11:15:47;;;;;;;3.67;3.22;;;;;;;;;;5074859;28;20543;-85
2022/07/25 11:18:14;;;;;;;4.18;3.65;;;;;;;;;;5073068;28;20109;-85
2022/07/25 11:20:41;;;;;;;4.50;3.22;;;;;;;;;;5073342;28;20040;-84
2022/07/25 11:23:08;;;;;;;3.75;3.28;;;;;;;;;;5073369;28;20048;-85
2022/07/25 11:25:35;;;;;;;5.35;3.67;;;;;;;;;;5073405;28;20047;-85
2022/07/25 11:28:03;;;;;;;4.53;3.33;;;;;;;;;;5072927;28;20053;-83
2022/07/25 11:30:31;;;;;;;3.42;3.30;;;;;;;;;;5073637;28;20106;-86
2022/07/25 11:33:02;;;;;;;5.05;3.05;;;;;;;;;;5075486;28;20044;-87
2022/07/25 11:35:30;;;;;;;5.68;3.30;;;;;;;;;;5075922;28;20055;-85
2022/07/25 11:38:01;;;;;;;3.40;3.10;;;;;;;;;;5075130;28;20418;-85
2022/07/25 11:40:43;;;;;;;3.75;3.55;;;;;;;;;;5078176;28;20048;-86
2022/07/25 11:43:21;;;;;;;3.47;3.28;;;;;;;;;;5074872;28;20065;-85
2022/07/25 11:45:58;;;;;;;3.85;3.55;;;;;;;;;;5073311;28;20098;-85
2022/07/25 11:48:37;;;;;;;6.82;3.60;;;;;;;;;;5072743;28;20131;-86
2022/07/25 11:51:12;;;;;;;4.55;3.50;;;;;;;;;;5072674;28;20091;-88
2022/07/25 11:53:46;;;;;;;4.47;3.47;;;;;;;;;;5072195;28;20051;-85
2022/07/25 11:56:14;;;;;;;5.05;3.33;;;;;;;;;;5072934;28;20143;-86
2022/07/25 11:59:01;;;;;;;4.10;3.80;;;;;;;;;;5072808;28;20143;-87
2022/07/25 12:01:36;;;;;;;4.50;3.40;;;;;;;;;;5072943;28;20045;-85
2022/07/25 12:04:10;;;;;;;4.05;3.75;;;;;;;;;;5072497;28;20055;-87
2022/07/25 12:06:38;;;;;;;3.35;3.17;;;;;;;;;;5072802;28;20051;-86
2022/07/25 12:09:19;;;;;;;4.28;3.53;;;;;;;;;;5072173;28;20041;-89
2022/07/25 12:11:47;;;;;;;3.70;3.40;;;;;;;;;;5073344;28;20041;-87
2022/07/25 12:14:15;;;;;;;3.70;3.40;;;;;;;;;;5072370;28;20529;-87
2022/07/25 12:16:42;;;;;;;3.90;3.63;;;;;;;;;;5072468;28;20040;-87
2022/07/25 12:19:17;;;;;;;4.32;3.92;;;;;;;;;;5072774;28;20087;-86
2022/07/25 12:21:45;;;;;;;7.65;4.20;;;;;;;;;;5073265;28;20078;-86
2022/07/25 12:24:12;;;;;;;4.30;3.85;;;;;;;;;;5072280;28;20048;-85
2022/07/25 12:26:39;;;;;;;29.25;4.93;;;;;;;;;;5075418;28;20056;-86
2022/07/25 12:29:06;;;;;;;11.75;4.28;;;;;;;;;;5072502;28;20044;-84
2022/07/25 12:31:34;;;;;;;7.00;3.50;;;;;;;;;;5072341;28;20048;-85
2022/07/25 12:34:02;;;;;;;4.32;3.92;;;;;;;;;;5072187;28;20055;-86
2022/07/25 12:36:29;;;;;;;5.03;3.47;;;;;;;;;;5072181;28;20045;-87
2022/07/25 12:38:56;;;;;;;4.32;3.72;;;;;;;;;;5072262;28;20067;-87
2022/07/25 12:41:24;;;;;;;7.00;3.83;;;;;;;;;;5072105;28;20056;-86
2022/07/25 12:43:51;;;;;;;4.22;3.40;;;;;;;;;;5072159;28;20045;-87
2022/07/25 12:46:18;;;;;;;3.70;3.40;;;;;;;;;;5071825;28;20049;-86
2022/07/25 12:48:45;;;;;;;4.80;3.95;;;;;;;;;;5072517;28;20513;-85
2022/07/25 12:51:13;;;;;;;8.82;3.97;;;;;;;;;;5071876;28;20052;-84
2022/07/25 12:53:40;;;;;;;4.03;3.83;;;;;;;;;;5073190;28;20467;-90
2022/07/25 12:56:08;;;;;;;6.55;4.10;;;;;;;;;;5071636;28;20498;-86
2022/07/25 12:58:36;;;;;;;4.50;3.72;;;;;;;;;;5072192;28;20048;-87
2022/07/25 13:01:04;;;;;;;4.47;4.03;;;;;;;;;;5071963;28;20127;-86
2022/07/25 13:03:32;;;;;;;4.57;3.95;;;;;;;;;;5072217;28;20048;-81
2022/07/25 13:05:59;;;;;;;5.93;3.90;;;;;;;;;;5071692;28;20044;-88
2022/07/25 13:08:26;;;;;;;5.00;4.20;;;;;;;;;;5072192;28;20098;-86
2022/07/25 13:10:53;;;;;;;4.05;3.70;;;;;;;;;;5071663;28;20488;-84
2022/07/25 13:13:20;;;;;;;4.25;3.95;;;;;;;;;;5073072;28;20118;-87
2022/07/25 13:15:48;;;;;;;4.10;3.80;;;;;;;;;;5072817;28;20045;-86
2022/07/25 13:18:15;;;;;;;5.20;4.32;;;;;;;;;;5071894;28;20071;-88
2022/07/25 13:20:42;;;;;;;4.70;4.30;;;;;;;;;;5071662;28;20041;-87
2022/07/25 13:23:09;;;;;;;8.45;4.15;;;;;;;;;;5072290;28;20044;-87
2022/07/25 13:25:36;;;;;;;7.05;4.30;;;;;;;;;;5075984;28;20087;-85
2022/07/25 13:28:04;;;;;;;4.22;4.03;;;;;;;;;;5075536;28;20045;-84
2022/07/25 13:30:36;;;;;;;;;;;;;;;;;;5076240;28;20051;-85
2022/07/25 13:33:04;;;;;;;4.75;4.22;;;;;;;;;;5075492;28;19920;-83
2022/07/25 13:35:32;;;;;;;5.82;4.18;;;;;;;;;;5075630;28;20417;-85
2022/07/25 13:38:08;;;;;;;13.80;5.13;;;;;;;;;;5074973;28;20535;-85
2022/07/25 13:40:39;;;;;;;5.35;4.80;;;;;;;;;;5075473;28;20044;-85
2022/07/25 13:43:07;;;;;;;4.95;4.38;;;;;;;;;;5076503;28;20048;-83
2022/07/25 13:45:34;;;;;;;10.10;4.60;;;;;;;;;;5075079;28;20101;-87
2022/07/25 13:48:03;;;;;;;5.55;4.53;;;;;;;;;;5075175;28;20059;-87
2022/07/25 13:50:50;;;;;;;4.90;4.50;;;;;;;;;;5075579;28;20102;-86
2022/07/25 13:53:18;;;;;;;4.97;4.45;;;;;;;;;;5075065;28;20597;-85
2022/07/25 13:55:45;;;;;;;5.22;4.45;;;;;;;;;;5075438;28;20114;-85
2022/07/25 13:58:12;;;;;;;7.07;4.18;;;;;;;;;;5075180;28;20055;-87
2022/07/25 14:00:39;;;;;;;5.68;4.18;;;;;;;;;;5074950;28;20131;-86
2022/07/25 14:03:06;;;;;;;5.03;4.22;;;;;;;;;;5074699;28;20049;-86
2022/07/25 14:05:33;;;;;;;4.65;4.22;;;;;;;;;;5076075;28;20494;-87
2022/07/25 14:08:01;;;;;;;4.97;4.05;;;;;;;;;;5074630;28;20517;-87
2022/07/25 14:10:28;;;;;;;4.45;4.15;;;;;;;;;;5075964;28;20110;-86
2022/07/25 14:12:55;;;;;;;4.65;4.20;;;;;;;;;;5074526;28;20084;-87
2022/07/25 14:15:23;;;;;;;4.57;4.22;;;;;;;;;;5074470;28;20064;-88
2022/07/25 14:17:50;;;;;;;4.80;3.95;;;;;;;;;;5075721;28;20044;-85
2022/07/25 14:20:17;;;;;;;4.35;3.85;;;;;;;;;;5074866;28;20512;-87
2022/07/25 14:22:44;;;;;;;7.30;4.15;;;;;;;;;;5074623;28;20071;-87
2022/07/25 14:25:11;;;;;;;5.32;3.50;;;;;;;;;;5076140;28;20072;-85
2022/07/25 14:27:39;;;;;;;4.20;3.67;;;;;;;;;;5076043;28;20052;-85
2022/07/25 14:30:07;;;;;;;3.75;3.50;;;;;;;;;;5074528;28;20049;-87
2022/07/25 14:32:35;;;;;;;3.85;3.47;;;;;;;;;;5074757;28;20056;-84
2022/07/25 14:35:02;;;;;;;6.57;3.70;;;;;;;;;;5074802;28;20391;-84
2022/07/25 14:37:30;;;;;;;3.63;3.30;;;;;;;;;;5075688;28;20049;-85
2022/07/25 14:39:58;;;;;;;3.42;3.25;;;;;;;;;;5075917;28;20049;-86
2022/07/25 14:42:25;;;;;;;5.90;3.60;;;;;;;;;;5077803;28;20055;-86
2022/07/25 14:44:52;;;;;;;4.05;3.65;;;;;;;;;;5075882;28;20056;-87
2022/07/25 14:47:23;;;;;;;3.80;3.50;;;;;;;;;;5073723;28;20114;-87
2022/07/25 14:49:53;;;;;;;5.10;3.70;;;;;;;;;;5074182;28;20059;-85
2022/07/25 14:52:22;;;;;;;4.10;3.80;;;;;;;;;;5073954;28;20068;-86